sensor_id;sensor_type;location;lat;lon;timestamp;temperature;humidity
4505;DHT22;2265;48.794;9.520;2023-04-07T00:01:07;8.70;98.00
4505;DHT22;2265;48.794;9.520;2023-04-07T00:03:36;8.70;98.00
4505;DHT22;2265;48.794;9.520;2023-04-07T00:06:05;8.70;98.00
4505;DHT22;2265;48.794;9.520;2023-04-07T00:08:37;8.80;98.00
4505;DHT22;2265;48.794;9.520;2023-04-07T00:11:04;8.70;98.00
4505;DHT22;2265;48.794;9.520;2023-04-07T00:13:33;8.70;98.00
4505;DHT22;2265;48.794;9.520;2023-04-07T00:16:00;8.60;98.00
4505;DHT22;2265;48.794;9.520;2023-04-07T00:18:27;8.60;98.00
4505;DHT22;2265;48.794;9.520;2023-04-07T00:20:55;8.60;98.00
4505;DHT22;2265;48.794;9.520;2023-04-07T00:23:25;8.70;98.00
4505;DHT22;2265;48.794;9.520;2023-04-07T00:25:54;8.60;98.00
4505;DHT22;2265;48.794;9.520;2023-04-07T00:28:21;8.70;98.00
4505;DHT22;2265;48.794;9.520;2023-04-07T00:30:48;8.70;98.00
4505;DHT22;2265;48.794;9.520;2023-04-07T00:33:15;8.60;98.00
4505;DHT22;2265;48.794;9.520;2023-04-07T00:35:42;8.50;98.00
4505;DHT22;2265;48.794;9.520;2023-04-07T00:38:11;8.50;98.00
4505;DHT22;2265;48.794;9.520;2023-04-07T00:40:38;8.50;98.00
4505;DHT22;2265;48.794;9.520;2023-04-07T00:43:05;8.40;98.00
4505;DHT22;2265;48.794;9.520;2023-04-07T00:45:32;8.30;98.00
4505;DHT22;2265;48.794;9.520;2023-04-07T00:47:59;8.20;98.00
4505;DHT22;2265;48.794;9.520;2023-04-07T00:50:26;8.20;98.00
4505;DHT22;2265;48.794;9.520;2023-04-07T00:52:53;8.20;98.00
4505;DHT22;2265;48.794;9.520;2023-04-07T00:55:23;8.20;98.00
4505;DHT22;2265;48.794;9.520;2023-04-07T00:57:50;8.20;98.00
4505;DHT22;2265;48.794;9.520;2023-04-07T01:00:18;8.10;98.00
4505;DHT22;2265;48.794;9.520;2023-04-07T01:02:53;8.10;98.00
4505;DHT22;2265;48.794;9.520;2023-04-07T01:05:25;8.20;98.00
4505;DHT22;2265;48.794;9.520;2023-04-07T01:08:03;8.30;98.00
4505;DHT22;2265;48.794;9.520;2023-04-07T01:10:39;8.30;98.00
4505;DHT22;2265;48.794;9.520;2023-04-07T01:13:11;8.30;98.00
4505;DHT22;2265;48.794;9.520;2023-04-07T01:15:40;8.30;98.00
4505;DHT22;2265;48.794;9.520;2023-04-07T01:18:12;8.30;98.00
4505;DHT22;2265;48.794;9.520;2023-04-07T01:20:42;8.40;98.00
4505;DHT22;2265;48.794;9.520;2023-04-07T01:23:20;8.30;98.00
4505;DHT22;2265;48.794;9.520;2023-04-07T01:26:03;8.20;98.00
4505;DHT22;2265;48.794;9.520;2023-04-07T01:29:03;8.20;98.00
4505;DHT22;2265;48.794;9.520;2023-04-07T01:31:36;8.10;98.00
4505;DHT22;2265;48.794;9.520;2023-04-07T01:34:09;8.10;98.00
4505;DHT22;2265;48.794;9.520;2023-04-07T01:36:37;8.00;98.00
4505;DHT22;2265;48.794;9.520;2023-04-07T01:39:05;8.10;98.00
4505;DHT22;2265;48.794;9.520;2023-04-07T01:41:33;8.10;98.00
4505;DHT22;2265;48.794;9.520;2023-04-07T01:44:00;8.10;98.00
4505;DHT22;2265;48.794;9.520;2023-04-07T01:46:28;8.20;98.00
4505;DHT22;2265;48.794;9.520;2023-04-07T01:48:57;8.30;98.00
4505;DHT22;2265;48.794;9.520;2023-04-07T01:51:25;8.20;98.00
4505;DHT22;2265;48.794;9.520;2023-04-07T01:53:54;8.20;98.00
4505;DHT22;2265;48.794;9.520;2023-04-07T01:56:21;8.30;98.00
4505;DHT22;2265;48.794;9.520;2023-04-07T01:58:49;8.20;98.00
4505;DHT22;2265;48.794;9.520;2023-04-07T02:01:16;8.10;98.00
4505;DHT22;2265;48.794;9.520;2023-04-07T02:03:48;8.10;98.00
4505;DHT22;2265;48.794;9.520;2023-04-07T02:06:19;8.10;98.00
4505;DHT22;2265;48.794;9.520;2023-04-07T02:08:50;8.00;98.00
4505;DHT22;2265;48.794;9.520;2023-04-07T02:11:20;8.00;98.00
4505;DHT22;2265;48.794;9.520;2023-04-07T02:13:48;7.90;98.00
4505;DHT22;2265;48.794;9.520;2023-04-07T02:16:18;7.80;98.00
4505;DHT22;2265;48.794;9.520;2023-04-07T02:18:46;7.80;98.00
4505;DHT22;2265;48.794;9.520;2023-04-07T02:21:14;7.90;98.00
4505;DHT22;2265;48.794;9.520;2023-04-07T02:23:45;7.90;98.00
4505;DHT22;2265;48.794;9.520;2023-04-07T02:26:15;7.80;98.00
4505;DHT22;2265;48.794;9.520;2023-04-07T02:28:42;7.80;98.00
4505;DHT22;2265;48.794;9.520;2023-04-07T02:31:09;7.80;98.00
4505;DHT22;2265;48.794;9.520;2023-04-07T02:33:38;7.70;98.00
4505;DHT22;2265;48.794;9.520;2023-04-07T02:36:05;7.80;98.00
4505;DHT22;2265;48.794;9.520;2023-04-07T02:38:32;7.80;98.00
4505;DHT22;2265;48.794;9.520;2023-04-07T02:41:01;7.80;98.00
4505;DHT22;2265;48.794;9.520;2023-04-07T02:43:28;7.80;98.00
4505;DHT22;2265;48.794;9.520;2023-04-07T02:45:56;7.70;98.00
4505;DHT22;2265;48.794;9.520;2023-04-07T02:48:23;7.70;98.00
4505;DHT22;2265;48.794;9.520;2023-04-07T02:50:50;7.70;98.00
4505;DHT22;2265;48.794;9.520;2023-04-07T02:53:17;7.60;98.00
4505;DHT22;2265;48.794;9.520;2023-04-07T02:55:45;7.60;98.00
4505;DHT22;2265;48.794;9.520;2023-04-07T02:58:13;7.60;98.00
4505;DHT22;2265;48.794;9.520;2023-04-07T03:00:40;7.50;98.00
4505;DHT22;2265;48.794;9.520;2023-04-07T03:03:07;7.40;98.00
4505;DHT22;2265;48.794;9.520;2023-04-07T03:05:35;7.40;98.00
4505;DHT22;2265;48.794;9.520;2023-04-07T03:08:02;7.50;98.00
4505;DHT22;2265;48.794;9.520;2023-04-07T03:10:29;7.40;98.00
4505;DHT22;2265;48.794;9.520;2023-04-07T03:12:56;7.50;98.00
4505;DHT22;2265;48.794;9.520;2023-04-07T03:15:24;7.60;98.00
4505;DHT22;2265;48.794;9.520;2023-04-07T03:17:51;7.60;98.00
4505;DHT22;2265;48.794;9.520;2023-04-07T03:20:19;7.70;98.00
4505;DHT22;2265;48.794;9.520;2023-04-07T03:22:48;7.80;98.00
4505;DHT22;2265;48.794;9.520;2023-04-07T03:25:17;7.90;98.00
4505;DHT22;2265;48.794;9.520;2023-04-07T03:27:51;8.00;98.00
4505;DHT22;2265;48.794;9.520;2023-04-07T03:30:18;8.00;98.00
4505;DHT22;2265;48.794;9.520;2023-04-07T03:32:46;7.90;98.00
4505;DHT22;2265;48.794;9.520;2023-04-07T03:35:14;8.00;98.00
4505;DHT22;2265;48.794;9.520;2023-04-07T03:37:41;8.00;98.00
4505;DHT22;2265;48.794;9.520;2023-04-07T03:40:08;7.90;98.00
4505;DHT22;2265;48.794;9.520;2023-04-07T03:42:36;7.80;98.00
4505;DHT22;2265;48.794;9.520;2023-04-07T03:45:03;7.80;98.00
4505;DHT22;2265;48.794;9.520;2023-04-07T03:47:30;7.80;98.00
4505;DHT22;2265;48.794;9.520;2023-04-07T03:50:05;7.80;98.00
4505;DHT22;2265;48.794;9.520;2023-04-07T03:52:32;7.70;98.00
4505;DHT22;2265;48.794;9.520;2023-04-07T03:54:59;7.60;98.00
4505;DHT22;2265;48.794;9.520;2023-04-07T03:57:27;7.60;98.00
4505;DHT22;2265;48.794;9.520;2023-04-07T03:59:54;7.60;98.00
4505;DHT22;2265;48.794;9.520;2023-04-07T04:02:21;7.50;98.00
4505;DHT22;2265;48.794;9.520;2023-04-07T04:04:48;7.60;98.00
4505;DHT22;2265;48.794;9.520;2023-04-07T04:07:17;7.70;98.00
4505;DHT22;2265;48.794;9.520;2023-04-07T04:09:45;7.80;98.00
4505;DHT22;2265;48.794;9.520;2023-04-07T04:12:12;7.70;98.00
4505;DHT22;2265;48.794;9.520;2023-04-07T04:14:40;7.60;98.00
4505;DHT22;2265;48.794;9.520;2023-04-07T04:17:07;7.60;98.00
4505;DHT22;2265;48.794;9.520;2023-04-07T04:19:35;7.70;98.00
4505;DHT22;2265;48.794;9.520;2023-04-07T04:22:02;7.80;98.00
4505;DHT22;2265;48.794;9.520;2023-04-07T04:24:30;7.70;98.00
4505;DHT22;2265;48.794;9.520;2023-04-07T04:26:59;7.70;98.00
4505;DHT22;2265;48.794;9.520;2023-04-07T04:29:27;7.70;98.00
4505;DHT22;2265;48.794;9.520;2023-04-07T04:31:54;7.90;98.00
4505;DHT22;2265;48.794;9.520;2023-04-07T04:34:21;8.00;98.00
4505;DHT22;2265;48.794;9.520;2023-04-07T04:36:48;8.10;98.00
4505;DHT22;2265;48.794;9.520;2023-04-07T04:39:15;7.90;98.00
4505;DHT22;2265;48.794;9.520;2023-04-07T04:41:44;7.70;98.00
4505;DHT22;2265;48.794;9.520;2023-04-07T04:44:27;7.50;98.00
4505;DHT22;2265;48.794;9.520;2023-04-07T04:46:54;7.60;98.00
4505;DHT22;2265;48.794;9.520;2023-04-07T04:49:22;7.60;98.00
4505;DHT22;2265;48.794;9.520;2023-04-07T04:51:49;7.50;98.00
4505;DHT22;2265;48.794;9.520;2023-04-07T04:54:19;7.60;98.00
4505;DHT22;2265;48.794;9.520;2023-04-07T04:56:47;7.70;98.00
4505;DHT22;2265;48.794;9.520;2023-04-07T04:59:15;7.60;98.00
4505;DHT22;2265;48.794;9.520;2023-04-07T05:01:42;7.60;98.00
4505;DHT22;2265;48.794;9.520;2023-04-07T05:04:09;7.80;98.00
4505;DHT22;2265;48.794;9.520;2023-04-07T05:06:37;7.90;98.00
4505;DHT22;2265;48.794;9.520;2023-04-07T05:09:05;7.90;98.00
4505;DHT22;2265;48.794;9.520;2023-04-07T05:11:32;8.00;98.00
4505;DHT22;2265;48.794;9.520;2023-04-07T05:14:01;8.00;98.00
4505;DHT22;2265;48.794;9.520;2023-04-07T05:16:28;7.90;98.00
4505;DHT22;2265;48.794;9.520;2023-04-07T05:18:55;7.90;98.00
4505;DHT22;2265;48.794;9.520;2023-04-07T05:21:22;7.80;98.00
4505;DHT22;2265;48.794;9.520;2023-04-07T05:23:49;7.70;98.00
4505;DHT22;2265;48.794;9.520;2023-04-07T05:26:17;7.70;98.00
4505;DHT22;2265;48.794;9.520;2023-04-07T05:28:43;7.80;98.00
4505;DHT22;2265;48.794;9.520;2023-04-07T05:31:12;7.70;98.00
4505;DHT22;2265;48.794;9.520;2023-04-07T05:33:40;7.70;98.00
4505;DHT22;2265;48.794;9.520;2023-04-07T05:36:07;7.70;98.00
4505;DHT22;2265;48.794;9.520;2023-04-07T05:38:35;7.80;98.00
4505;DHT22;2265;48.794;9.520;2023-04-07T05:41:02;7.80;98.00
4505;DHT22;2265;48.794;9.520;2023-04-07T05:43:30;7.80;98.00
4505;DHT22;2265;48.794;9.520;2023-04-07T05:45:57;8.00;98.00
4505;DHT22;2265;48.794;9.520;2023-04-07T05:48:26;8.10;98.00
4505;DHT22;2265;48.794;9.520;2023-04-07T05:50:53;8.10;98.00
4505;DHT22;2265;48.794;9.520;2023-04-07T05:53:21;8.10;98.00
4505;DHT22;2265;48.794;9.520;2023-04-07T05:55:48;8.10;98.00
4505;DHT22;2265;48.794;9.520;2023-04-07T05:58:15;8.10;98.00
4505;DHT22;2265;48.794;9.520;2023-04-07T06:00:42;8.20;98.00
4505;DHT22;2265;48.794;9.520;2023-04-07T06:03:10;8.30;98.00
4505;DHT22;2265;48.794;9.520;2023-04-07T06:05:38;8.20;98.00
4505;DHT22;2265;48.794;9.520;2023-04-07T06:08:08;8.20;98.00
4505;DHT22;2265;48.794;9.520;2023-04-07T06:10:35;8.10;98.00
4505;DHT22;2265;48.794;9.520;2023-04-07T06:13:02;8.10;98.00
4505;DHT22;2265;48.794;9.520;2023-04-07T06:15:29;8.20;98.00
4505;DHT22;2265;48.794;9.520;2023-04-07T06:17:56;8.20;98.00
4505;DHT22;2265;48.794;9.520;2023-04-07T06:20:23;8.40;98.00
4505;DHT22;2265;48.794;9.520;2023-04-07T06:22:54;8.50;98.00
4505;DHT22;2265;48.794;9.520;2023-04-07T06:25:21;8.40;98.00
4505;DHT22;2265;48.794;9.520;2023-04-07T06:27:48;8.40;98.00
4505;DHT22;2265;48.794;9.520;2023-04-07T06:30:15;8.40;98.00
4505;DHT22;2265;48.794;9.520;2023-04-07T06:32:42;8.40;98.00
4505;DHT22;2265;48.794;9.520;2023-04-07T06:35:09;8.40;98.00
4505;DHT22;2265;48.794;9.520;2023-04-07T06:37:36;8.50;98.00
4505;DHT22;2265;48.794;9.520;2023-04-07T06:40:06;8.60;98.00
4505;DHT22;2265;48.794;9.520;2023-04-07T06:42:34;8.80;98.00
4505;DHT22;2265;48.794;9.520;2023-04-07T06:45:01;8.80;98.00
4505;DHT22;2265;48.794;9.520;2023-04-07T06:47:29;8.80;98.00
4505;DHT22;2265;48.794;9.520;2023-04-07T06:49:56;8.80;98.00
4505;DHT22;2265;48.794;9.520;2023-04-07T06:52:23;8.90;98.00
4505;DHT22;2265;48.794;9.520;2023-04-07T06:54:50;9.00;98.00
4505;DHT22;2265;48.794;9.520;2023-04-07T06:57:19;9.20;98.00
4505;DHT22;2265;48.794;9.520;2023-04-07T06:59:46;9.30;98.00
4505;DHT22;2265;48.794;9.520;2023-04-07T07:02:13;9.40;98.00
4505;DHT22;2265;48.794;9.520;2023-04-07T07:04:41;9.30;98.00
4505;DHT22;2265;48.794;9.520;2023-04-07T07:07:10;9.20;98.00
4505;DHT22;2265;48.794;9.520;2023-04-07T07:09:38;9.00;98.00
4505;DHT22;2265;48.794;9.520;2023-04-07T07:12:06;9.00;98.00
4505;DHT22;2265;48.794;9.520;2023-04-07T07:14:35;9.20;98.00
4505;DHT22;2265;48.794;9.520;2023-04-07T07:17:02;9.30;98.00
4505;DHT22;2265;48.794;9.520;2023-04-07T07:19:29;9.40;98.00
4505;DHT22;2265;48.794;9.520;2023-04-07T07:21:57;9.50;98.00
4505;DHT22;2265;48.794;9.520;2023-04-07T07:24:25;9.40;98.00
4505;DHT22;2265;48.794;9.520;2023-04-07T07:26:53;9.40;98.00
4505;DHT22;2265;48.794;9.520;2023-04-07T07:29:21;9.40;98.00
4505;DHT22;2265;48.794;9.520;2023-04-07T07:31:49;9.60;98.00
4505;DHT22;2265;48.794;9.520;2023-04-07T07:34:16;9.70;98.00
4505;DHT22;2265;48.794;9.520;2023-04-07T07:36:43;9.80;98.00
4505;DHT22;2265;48.794;9.520;2023-04-07T07:39:10;9.80;98.00
4505;DHT22;2265;48.794;9.520;2023-04-07T07:41:40;9.90;98.00
4505;DHT22;2265;48.794;9.520;2023-04-07T07:44:11;10.00;98.00
4505;DHT22;2265;48.794;9.520;2023-04-07T07:46:39;10.10;98.00
4505;DHT22;2265;48.794;9.520;2023-04-07T07:49:08;10.20;98.00
4505;DHT22;2265;48.794;9.520;2023-04-07T07:51:35;10.20;98.00
4505;DHT22;2265;48.794;9.520;2023-04-07T07:54:03;10.10;98.00
4505;DHT22;2265;48.794;9.520;2023-04-07T07:56:30;10.20;98.00
4505;DHT22;2265;48.794;9.520;2023-04-07T07:58:57;10.20;98.00
4505;DHT22;2265;48.794;9.520;2023-04-07T08:01:24;10.20;98.00
4505;DHT22;2265;48.794;9.520;2023-04-07T08:03:51;10.10;98.00
4505;DHT22;2265;48.794;9.520;2023-04-07T08:06:20;10.20;98.00
4505;DHT22;2265;48.794;9.520;2023-04-07T08:08:47;10.30;98.00
4505;DHT22;2265;48.794;9.520;2023-04-07T08:11:14;10.40;98.00
4505;DHT22;2265;48.794;9.520;2023-04-07T08:13:42;10.40;98.00
4505;DHT22;2265;48.794;9.520;2023-04-07T08:16:11;10.40;98.00
4505;DHT22;2265;48.794;9.520;2023-04-07T08:18:39;10.50;98.00
4505;DHT22;2265;48.794;9.520;2023-04-07T08:21:06;10.90;98.00
4505;DHT22;2265;48.794;9.520;2023-04-07T08:23:35;11.00;98.00
4505;DHT22;2265;48.794;9.520;2023-04-07T08:26:03;11.20;98.00
4505;DHT22;2265;48.794;9.520;2023-04-07T08:28:30;11.20;98.00
4505;DHT22;2265;48.794;9.520;2023-04-07T08:30:57;11.30;98.00
4505;DHT22;2265;48.794;9.520;2023-04-07T08:33:25;11.60;98.00
4505;DHT22;2265;48.794;9.520;2023-04-07T08:35:53;11.80;98.00
4505;DHT22;2265;48.794;9.520;2023-04-07T08:38:21;12.00;98.00
4505;DHT22;2265;48.794;9.520;2023-04-07T08:40:57;12.20;98.00
4505;DHT22;2265;48.794;9.520;2023-04-07T08:43:26;12.50;98.00
4505;DHT22;2265;48.794;9.520;2023-04-07T08:45:57;12.70;98.00
4505;DHT22;2265;48.794;9.520;2023-04-07T08:48:26;12.90;98.00
4505;DHT22;2265;48.794;9.520;2023-04-07T08:50:59;12.90;98.00
4505;DHT22;2265;48.794;9.520;2023-04-07T08:53:35;12.90;98.00
4505;DHT22;2265;48.794;9.520;2023-04-07T08:56:06;12.90;98.00
4505;DHT22;2265;48.794;9.520;2023-04-07T08:58:35;13.00;98.00
4505;DHT22;2265;48.794;9.520;2023-04-07T09:01:04;13.30;98.00
4505;DHT22;2265;48.794;9.520;2023-04-07T09:03:32;13.50;98.00
4505;DHT22;2265;48.794;9.520;2023-04-07T09:06:00;14.10;98.00
4505;DHT22;2265;48.794;9.520;2023-04-07T09:08:27;14.60;98.00
4505;DHT22;2265;48.794;9.520;2023-04-07T09:10:56;15.00;98.00
4505;DHT22;2265;48.794;9.520;2023-04-07T09:13:26;15.50;98.00
4505;DHT22;2265;48.794;9.520;2023-04-07T09:15:53;15.70;98.00
4505;DHT22;2265;48.794;9.520;2023-04-07T09:18:20;15.40;98.00
4505;DHT22;2265;48.794;9.520;2023-04-07T09:20:57;15.10;98.00
4505;DHT22;2265;48.794;9.520;2023-04-07T09:23:29;14.80;98.00
4505;DHT22;2265;48.794;9.520;2023-04-07T09:25:57;14.50;98.00
4505;DHT22;2265;48.794;9.520;2023-04-07T09:28:37;14.10;98.00
4505;DHT22;2265;48.794;9.520;2023-04-07T09:31:07;14.00;98.00
4505;DHT22;2265;48.794;9.520;2023-04-07T09:33:34;13.90;98.00
4505;DHT22;2265;48.794;9.520;2023-04-07T09:36:02;13.90;98.00
4505;DHT22;2265;48.794;9.520;2023-04-07T09:38:34;13.90;98.00
4505;DHT22;2265;48.794;9.520;2023-04-07T09:41:06;13.90;98.00
4505;DHT22;2265;48.794;9.520;2023-04-07T09:43:37;13.90;98.00
4505;DHT22;2265;48.794;9.520;2023-04-07T09:46:09;13.90;98.00
4505;DHT22;2265;48.794;9.520;2023-04-07T09:48:36;13.80;98.00
4505;DHT22;2265;48.794;9.520;2023-04-07T09:51:06;13.90;98.00
4505;DHT22;2265;48.794;9.520;2023-04-07T09:53:41;13.90;98.00
4505;DHT22;2265;48.794;9.520;2023-04-07T09:56:09;13.90;98.00
4505;DHT22;2265;48.794;9.520;2023-04-07T09:58:39;14.00;98.00
4505;DHT22;2265;48.794;9.520;2023-04-07T10:01:07;14.00;98.00
4505;DHT22;2265;48.794;9.520;2023-04-07T10:03:37;14.00;98.00
4505;DHT22;2265;48.794;9.520;2023-04-07T10:06:05;13.90;98.00
4505;DHT22;2265;48.794;9.520;2023-04-07T10:08:33;13.80;98.00
4505;DHT22;2265;48.794;9.520;2023-04-07T10:11:01;13.80;98.00
4505;DHT22;2265;48.794;9.520;2023-04-07T10:13:30;13.90;98.00
4505;DHT22;2265;48.794;9.520;2023-04-07T10:16:03;14.00;98.00
4505;DHT22;2265;48.794;9.520;2023-04-07T10:18:31;14.10;98.00
4505;DHT22;2265;48.794;9.520;2023-04-07T10:21:00;14.10;98.00
4505;DHT22;2265;48.794;9.520;2023-04-07T10:23:35;14.20;98.00
4505;DHT22;2265;48.794;9.520;2023-04-07T10:26:07;14.10;98.00
4505;DHT22;2265;48.794;9.520;2023-04-07T10:28:37;14.00;98.00
4505;DHT22;2265;48.794;9.520;2023-04-07T10:31:09;14.00;98.00
4505;DHT22;2265;48.794;9.520;2023-04-07T10:33:47;14.10;98.00
4505;DHT22;2265;48.794;9.520;2023-04-07T10:36:15;14.10;98.00
4505;DHT22;2265;48.794;9.520;2023-04-07T10:39:20;14.10;98.00
4505;DHT22;2265;48.794;9.520;2023-04-07T10:41:48;14.10;98.00
4505;DHT22;2265;48.794;9.520;2023-04-07T10:44:45;14.10;98.00
4505;DHT22;2265;48.794;9.520;2023-04-07T10:47:14;14.00;98.00
4505;DHT22;2265;48.794;9.520;2023-04-07T10:50:18;14.00;98.00
4505;DHT22;2265;48.794;9.520;2023-04-07T10:52:47;14.10;98.00
4505;DHT22;2265;48.794;9.520;2023-04-07T10:55:36;14.20;98.00
4505;DHT22;2265;48.794;9.520;2023-04-07T10:58:28;14.30;98.00
4505;DHT22;2265;48.794;9.520;2023-04-07T11:01:18;14.10;98.00
4505;DHT22;2265;48.794;9.520;2023-04-07T11:04:08;14.00;98.00
4505;DHT22;2265;48.794;9.520;2023-04-07T11:06:37;14.00;98.00
4505;DHT22;2265;48.794;9.520;2023-04-07T11:09:18;14.00;98.00
4505;DHT22;2265;48.794;9.520;2023-04-07T11:11:45;13.90;98.00
4505;DHT22;2265;48.794;9.520;2023-04-07T11:14:24;13.90;98.00
4505;DHT22;2265;48.794;9.520;2023-04-07T11:16:52;13.90;98.00
4505;DHT22;2265;48.794;9.520;2023-04-07T11:19:21;14.00;98.00
4505;DHT22;2265;48.794;9.520;2023-04-07T11:21:49;14.20;98.00
4505;DHT22;2265;48.794;9.520;2023-04-07T11:24:32;14.10;98.00
4505;DHT22;2265;48.794;9.520;2023-04-07T11:26:59;14.20;98.00
4505;DHT22;2265;48.794;9.520;2023-04-07T11:29:27;14.20;98.00
4505;DHT22;2265;48.794;9.520;2023-04-07T11:31:57;14.30;98.00
4505;DHT22;2265;48.794;9.520;2023-04-07T11:34:30;14.20;98.00
4505;DHT22;2265;48.794;9.520;2023-04-07T11:36:57;14.30;98.00
4505;DHT22;2265;48.794;9.520;2023-04-07T11:39:26;14.40;98.00
4505;DHT22;2265;48.794;9.520;2023-04-07T11:41:56;14.40;98.00
4505;DHT22;2265;48.794;9.520;2023-04-07T11:44:23;14.50;98.00
4505;DHT22;2265;48.794;9.520;2023-04-07T11:46:52;14.50;98.00
4505;DHT22;2265;48.794;9.520;2023-04-07T11:49:19;14.60;98.00
4505;DHT22;2265;48.794;9.520;2023-04-07T11:51:57;14.70;98.00
4505;DHT22;2265;48.794;9.520;2023-04-07T11:54:26;14.60;98.00
4505;DHT22;2265;48.794;9.520;2023-04-07T11:56:56;14.70;98.00
4505;DHT22;2265;48.794;9.520;2023-04-07T11:59:24;14.80;98.00
4505;DHT22;2265;48.794;9.520;2023-04-07T12:01:52;14.90;98.00
4505;DHT22;2265;48.794;9.520;2023-04-07T12:04:19;14.80;98.00
4505;DHT22;2265;48.794;9.520;2023-04-07T12:06:47;14.80;98.00
4505;DHT22;2265;48.794;9.520;2023-04-07T12:09:29;14.90;98.00
4505;DHT22;2265;48.794;9.520;2023-04-07T12:11:57;15.00;98.00
4505;DHT22;2265;48.794;9.520;2023-04-07T12:14:26;15.00;98.00
4505;DHT22;2265;48.794;9.520;2023-04-07T12:16:53;15.00;98.00
4505;DHT22;2265;48.794;9.520;2023-04-07T12:19:22;15.00;98.00
4505;DHT22;2265;48.794;9.520;2023-04-07T12:21:55;15.10;98.00
4505;DHT22;2265;48.794;9.520;2023-04-07T12:24:22;15.10;98.00
4505;DHT22;2265;48.794;9.520;2023-04-07T12:26:51;15.20;98.00
4505;DHT22;2265;48.794;9.520;2023-04-07T12:29:18;15.30;98.00
4505;DHT22;2265;48.794;9.520;2023-04-07T12:31:45;15.20;98.00
4505;DHT22;2265;48.794;9.520;2023-04-07T12:34:13;15.20;97.20
4505;DHT22;2265;48.794;9.520;2023-04-07T12:36:41;15.10;96.60
4505;DHT22;2265;48.794;9.520;2023-04-07T12:39:09;15.20;98.00
4505;DHT22;2265;48.794;9.520;2023-04-07T12:41:36;15.30;97.50
4505;DHT22;2265;48.794;9.520;2023-04-07T12:44:06;15.50;96.80
4505;DHT22;2265;48.794;9.520;2023-04-07T12:46:34;15.40;96.40
4505;DHT22;2265;48.794;9.520;2023-04-07T12:49:02;15.60;97.40
4505;DHT22;2265;48.794;9.520;2023-04-07T12:51:31;15.80;98.00
4505;DHT22;2265;48.794;9.520;2023-04-07T12:53:58;16.00;98.00
4505;DHT22;2265;48.794;9.520;2023-04-07T12:56:26;16.20;98.00
4505;DHT22;2265;48.794;9.520;2023-04-07T12:58:53;16.30;98.00
4505;DHT22;2265;48.794;9.520;2023-04-07T13:01:22;16.30;98.00
4505;DHT22;2265;48.794;9.520;2023-04-07T13:03:49;16.20;98.00
4505;DHT22;2265;48.794;9.520;2023-04-07T13:06:17;16.30;98.00
4505;DHT22;2265;48.794;9.520;2023-04-07T13:08:44;16.40;97.20
4505;DHT22;2265;48.794;9.520;2023-04-07T13:11:11;16.60;96.20
4505;DHT22;2265;48.794;9.520;2023-04-07T13:13:39;16.80;94.50
4505;DHT22;2265;48.794;9.520;2023-04-07T13:16:07;16.70;95.40
4505;DHT22;2265;48.794;9.520;2023-04-07T13:18:37;17.20;93.60
4505;DHT22;2265;48.794;9.520;2023-04-07T13:21:04;17.40;94.70
4505;DHT22;2265;48.794;9.520;2023-04-07T13:23:31;17.60;93.10
4505;DHT22;2265;48.794;9.520;2023-04-07T13:25:58;17.50;91.70
4505;DHT22;2265;48.794;9.520;2023-04-07T13:28:26;17.20;93.60
4505;DHT22;2265;48.794;9.520;2023-04-07T13:30:53;16.90;93.50
4505;DHT22;2265;48.794;9.520;2023-04-07T13:33:20;16.50;93.60
4505;DHT22;2265;48.794;9.520;2023-04-07T13:35:50;16.20;94.70
4505;DHT22;2265;48.794;9.520;2023-04-07T13:38:17;15.90;95.70
4505;DHT22;2265;48.794;9.520;2023-04-07T13:40:44;15.60;97.80
4505;DHT22;2265;48.794;9.520;2023-04-07T13:43:14;15.50;98.00
4505;DHT22;2265;48.794;9.520;2023-04-07T13:45:43;15.30;95.80
4505;DHT22;2265;48.794;9.520;2023-04-07T13:48:11;15.10;97.90
4505;DHT22;2265;48.794;9.520;2023-04-07T13:50:38;14.90;98.00
4505;DHT22;2265;48.794;9.520;2023-04-07T13:53:07;14.80;98.00
4505;DHT22;2265;48.794;9.520;2023-04-07T13:55:34;14.70;98.00
4505;DHT22;2265;48.794;9.520;2023-04-07T13:58:01;14.60;98.00
4505;DHT22;2265;48.794;9.520;2023-04-07T14:00:28;14.60;98.00
4505;DHT22;2265;48.794;9.520;2023-04-07T14:02:57;14.50;98.00
4505;DHT22;2265;48.794;9.520;2023-04-07T14:05:26;14.40;98.00
4505;DHT22;2265;48.794;9.520;2023-04-07T14:07:53;14.40;98.00
4505;DHT22;2265;48.794;9.520;2023-04-07T14:10:21;14.30;98.00
4505;DHT22;2265;48.794;9.520;2023-04-07T14:12:48;14.20;98.00
4505;DHT22;2265;48.794;9.520;2023-04-07T14:15:16;14.10;97.50
4505;DHT22;2265;48.794;9.520;2023-04-07T14:17:43;14.10;96.10
4505;DHT22;2265;48.794;9.520;2023-04-07T14:20:10;14.10;96.80
4505;DHT22;2265;48.794;9.520;2023-04-07T14:22:37;14.20;96.50
4505;DHT22;2265;48.794;9.520;2023-04-07T14:25:05;14.20;95.90
4505;DHT22;2265;48.794;9.520;2023-04-07T14:27:39;14.20;94.60
4505;DHT22;2265;48.794;9.520;2023-04-07T14:30:08;14.30;94.40
4505;DHT22;2265;48.794;9.520;2023-04-07T14:32:35;14.30;95.20
4505;DHT22;2265;48.794;9.520;2023-04-07T14:35:02;14.30;95.20
4505;DHT22;2265;48.794;9.520;2023-04-07T14:37:29;14.20;95.30
4505;DHT22;2265;48.794;9.520;2023-04-07T14:39:56;14.20;96.30
4505;DHT22;2265;48.794;9.520;2023-04-07T14:42:25;14.20;97.60
4505;DHT22;2265;48.794;9.520;2023-04-07T14:44:53;14.20;98.00
4505;DHT22;2265;48.794;9.520;2023-04-07T14:47:20;14.20;98.00
4505;DHT22;2265;48.794;9.520;2023-04-07T14:49:48;14.30;98.00
4505;DHT22;2265;48.794;9.520;2023-04-07T14:52:15;14.30;98.00
4505;DHT22;2265;48.794;9.520;2023-04-07T14:54:42;14.20;98.00
4505;DHT22;2265;48.794;9.520;2023-04-07T14:57:09;14.20;98.00
4505;DHT22;2265;48.794;9.520;2023-04-07T14:59:37;14.20;98.00
4505;DHT22;2265;48.794;9.520;2023-04-07T15:02:05;14.30;98.00
4505;DHT22;2265;48.794;9.520;2023-04-07T15:04:35;14.40;98.00
4505;DHT22;2265;48.794;9.520;2023-04-07T15:07:03;14.50;98.00
4505;DHT22;2265;48.794;9.520;2023-04-07T15:09:33;14.30;98.00
4505;DHT22;2265;48.794;9.520;2023-04-07T15:12:00;14.40;98.00
4505;DHT22;2265;48.794;9.520;2023-04-07T15:14:27;14.50;98.00
4505;DHT22;2265;48.794;9.520;2023-04-07T15:16:54;14.50;98.00
4505;DHT22;2265;48.794;9.520;2023-04-07T15:19:22;14.60;98.00
4505;DHT22;2265;48.794;9.520;2023-04-07T15:21:49;14.60;98.00
4505;DHT22;2265;48.794;9.520;2023-04-07T15:24:16;14.50;98.00
4505;DHT22;2265;48.794;9.520;2023-04-07T15:26:45;14.70;98.00
4505;DHT22;2265;48.794;9.520;2023-04-07T15:29:12;14.80;98.00
4505;DHT22;2265;48.794;9.520;2023-04-07T15:31:39;15.00;98.00
4505;DHT22;2265;48.794;9.520;2023-04-07T15:34:07;15.10;98.00
4505;DHT22;2265;48.794;9.520;2023-04-07T15:36:35;15.40;98.00
4505;DHT22;2265;48.794;9.520;2023-04-07T15:39:03;15.60;97.50
4505;DHT22;2265;48.794;9.520;2023-04-07T15:41:31;15.60;97.80
4505;DHT22;2265;48.794;9.520;2023-04-07T15:43:59;15.50;98.00
4505;DHT22;2265;48.794;9.520;2023-04-07T15:46:26;15.50;97.80
4505;DHT22;2265;48.794;9.520;2023-04-07T15:48:53;15.90;98.00
4505;DHT22;2265;48.794;9.520;2023-04-07T15:51:21;16.40;96.50
4505;DHT22;2265;48.794;9.520;2023-04-07T15:53:50;16.90;93.80
4505;DHT22;2265;48.794;9.520;2023-04-07T15:56:17;17.40;94.10
4505;DHT22;2265;48.794;9.520;2023-04-07T15:58:44;17.30;94.00
4505;DHT22;2265;48.794;9.520;2023-04-07T16:01:11;16.90;94.00
4505;DHT22;2265;48.794;9.520;2023-04-07T16:03:38;16.60;96.30
4505;DHT22;2265;48.794;9.520;2023-04-07T16:06:05;16.30;98.00
4505;DHT22;2265;48.794;9.520;2023-04-07T16:08:32;16.10;97.90
4505;DHT22;2265;48.794;9.520;2023-04-07T16:11:01;16.00;98.00
4505;DHT22;2265;48.794;9.520;2023-04-07T16:13:28;16.00;98.00
4505;DHT22;2265;48.794;9.520;2023-04-07T16:15:55;16.00;98.00
4505;DHT22;2265;48.794;9.520;2023-04-07T16:18:23;16.20;97.80
4505;DHT22;2265;48.794;9.520;2023-04-07T16:20:50;16.30;98.00